Observation data for Anton on 11/22/2019      Previous  Date       Current Mesonet Observations  Soil Data  Daily Summary Page  Observations in Plain Language
KAOS 220600Z 34006KT 03/02 A3011 RMK A01 T00280021  RH  097%=      5-min Rain = 0
KAOS 220605Z 34007KT 03/02 A301 RMK A01 T00280021  RH  097%=      5-min Rain = 0
KAOS 220610Z 36007KT 03/02 A3009 RMK A01 T00280021  RH  097%=      5-min Rain = 0
KAOS 220615Z 35007KT 03/02 A3009 RMK A01 T00280021  RH  097%=      5-min Rain = 0
KAOS 220620Z 01006KT 03/02 A3008 RMK A01 T00280021  RH  097%=      5-min Rain = 0
KAOS 220625Z 01006KT 03/02 A3009 RMK A01 T00280021  RH  097%=      5-min Rain = 0
KAOS 220630Z 02006KT 03/02 A3008 RMK A01 T00280021  RH  096%=      5-min Rain = 0
KAOS 220635Z 02006KT 03/02 A3008 RMK A01 T00280020  RH  096%=      5-min Rain = 0
KAOS 220640Z 04007KT 03/02 A3007 RMK A01 T00280020  RH  096%=      5-min Rain = 0
KAOS 220645Z 05006KT 03/02 A3007 RMK A01 T00280020  RH  096%=      5-min Rain = 0
KAOS 220650Z 07005KT 03/02 A3008 RMK A01 T00280020  RH  096%=      5-min Rain = 0
KAOS 220655Z 09005KT 03/02 A3009 RMK A01 T00290021  RH  096%=      5-min Rain = 0
KAOS 220700Z 12006KT 03/02 A3011 RMK A01 T00290021  RH  096%=      5-min Rain = 0
KAOS 220705Z 14008KT 03/02 A3012 RMK A01 T00290022  RH  096%=      5-min Rain = 0
KAOS 220710Z 14006KT 03/02 A3012 RMK A01 T00300022  RH  096%=      5-min Rain = 0
KAOS 220715Z 11007KT 03/02 A3011 RMK A01 T00300022  RH  096%=      5-min Rain = 0
KAOS 220720Z 09008KT 03/02 A3009 RMK A01 T00300021  RH  096%=      5-min Rain = 0
KAOS 220725Z 09009KT 03/02 A3008 RMK A01 T00290021  RH  096%=      5-min Rain = 0
KAOS 220730Z 09009KT 03/02 A3008 RMK A01 T00290020  RH  096%=      5-min Rain = 0
KAOS 220735Z 08007KT 03/02 A3009 RMK A01 T00280020  RH  096%=      5-min Rain = 0
KAOS 220740Z 08007KT 03/02 A3009 RMK A01 T00280019  RH  095%=      5-min Rain = 0
KAOS 220745Z 07005KT 03/02 A3008 RMK A01 T00270018  RH  095%=      5-min Rain = 0
KAOS 220750Z 06005KT 03/02 A3007 RMK A01 T00260017  RH  095%=      5-min Rain = 0
KAOS 220755Z 06007KT 03/02 A3006 RMK A01 T00260017  RH  096%=      5-min Rain = 0
KAOS 220800Z 06006KT 03/02 A3007 RMK A01 T00260018  RH  096%=      5-min Rain = 0
KAOS 220805Z 02004KT 03/02 A3008 RMK A01 T00260018  RH  096%=      5-min Rain = 0
KAOS 220810Z 02004KT 03/02 A3008 RMK A01 T00260018  RH  096%=      5-min Rain = 0
KAOS 220815Z 01003KT 03/02 A3009 RMK A01 T00260018  RH  096%=      5-min Rain = 0
KAOS 220820Z 00004KT 03/02 A3009 RMK A01 T00260018  RH  096%=      5-min Rain = 0
KAOS 220825Z 35004KT 03/02 A301 RMK A01 T00260018  RH  096%=      5-min Rain = 0
KAOS 220830Z 33007KT 03/02 A3011 RMK A01 T00270019  RH  096%=      5-min Rain = 0
KAOS 220835Z 33007KT 03/02 A3012 RMK A01 T00270019  RH  096%=      5-min Rain = 0
KAOS 220840Z 33006KT 03/02 A3012 RMK A01 T00270019  RH  096%=      5-min Rain = 0
KAOS 220845Z 33008KT 03/02 A3012 RMK A01 T00270019  RH  096%=      5-min Rain = 0
KAOS 220850Z 33010KT 03/02 A3012 RMK A01 T00270018  RH  096%=      5-min Rain = 0
KAOS 220855Z 33010KT 03/02 A3012 RMK A01 T00270018  RH  095%=      5-min Rain = 0
KAOS 220900Z 33011KT 03/02 A3011 RMK A01 T00280019  RH  095%=      5-min Rain = 0
KAOS 220905Z 33008KT 03/02 A3013 RMK A01 T00280019  RH  095%=      5-min Rain = 0
KAOS 220910Z 32007KT 03/02 A3013 RMK A01 T00290020  RH  095%=      5-min Rain = 0
KAOS 220915Z 33006KT 03/02 A3014 RMK A01 T00300020  RH  095%=      5-min Rain = 0
KAOS 220920Z 32006KT 03/02 A3014 RMK A01 T00300020  RH  095%=      5-min Rain = 0
KAOS 220925Z 33008KT 03/02 A3014 RMK A01 T00300020  RH  095%=      5-min Rain = 0
KAOS 220930Z 33008KT 03/02 A3014 RMK A01 T00310020  RH  094%=      5-min Rain = 0
KAOS 220935Z 34009KT 03/02 A3014 RMK A01 T00300019  RH  094%=      5-min Rain = 0
KAOS 220940Z 33010KT 03/02 A3013 RMK A01 T00290018  RH  094%=      5-min Rain = 0
KAOS 220945Z 34008KT 03/02 A3013 RMK A01 T00290018  RH  094%=      5-min Rain = 0
KAOS 220950Z 34008KT 03/02 A3013 RMK A01 T00290018  RH  093%=      5-min Rain = 0
KAOS 220955Z 34008KT 03/02 A3013 RMK A01 T00290018  RH  094%=      5-min Rain = 0
KAOS 221000Z 33010KT 03/02 A3014 RMK A01 T00290017  RH  094%=      5-min Rain = 0
KAOS 221005Z 34009KT 03/02 A3014 RMK A01 T00280017  RH  094%=      5-min Rain = 0
KAOS 221010Z 34008KT 03/02 A3014 RMK A01 T00280017  RH  094%=      5-min Rain = 0
KAOS 221015Z 34008KT 03/02 A3014 RMK A01 T00280017  RH  094%=      5-min Rain = 0
KAOS 221020Z 35008KT 03/02 A3014 RMK A01 T00280018  RH  095%=      5-min Rain = 0
KAOS 221025Z 34010KT 03/02 A3013 RMK A01 T00270017  RH  095%=      5-min Rain = 0
KAOS 221030Z 35010KT 03/02 A3013 RMK A01 T00270017  RH  095%=      5-min Rain = 0
KAOS 221035Z 00010KT 03/02 A3013 RMK A01 T00260016  RH  094%=      5-min Rain = 0
KAOS 221040Z 36010KT 03/02 A3013 RMK A01 T00260016  RH  095%=      5-min Rain = 0
KAOS 221045Z 00007KT 03/02 A3013 RMK A01 T00260016  RH  095%=      5-min Rain = 0
KAOS 221050Z 01008KT 03/02 A3013 RMK A01 T00260017  RH  095%=      5-min Rain = 0
KAOS 221055Z 00008KT 03/02 A3013 RMK A01 T00260017  RH  095%=      5-min Rain = 0
KAOS 221100Z 00007KT 03/02 A3013 RMK A01 T00260016  RH  094%=      5-min Rain = 0
KAOS 221105Z 01008KT 03/02 A3013 RMK A01 T00270016  RH  094%=      5-min Rain = 0
KAOS 221110Z 36008KT 03/02 A3013 RMK A01 T00270016  RH  094%=      5-min Rain = 0
KAOS 221115Z 00009KT 03/02 A3013 RMK A01 T00270015  RH  093%=      5-min Rain = 0
KAOS 221120Z 01009KT 03/01 A3013 RMK A01 T00270014  RH  093%=      5-min Rain = 0
KAOS 221125Z 01009KT 03/01 A3013 RMK A01 T00260013  RH  093%=      5-min Rain = 0
KAOS 221130Z 01007KT 03/02 A3014 RMK A01 T00260015  RH  093%=      5-min Rain = 0
KAOS 221135Z 01008KT 03/02 A3014 RMK A01 T00260015  RH  094%=      5-min Rain = 0
KAOS 221140Z 36008KT 03/02 A3014 RMK A01 T00260015  RH  094%=      5-min Rain = 0
KAOS 221145Z 00007KT 03/02 A3014 RMK A01 T00260016  RH  094%=      5-min Rain = 0
KAOS 221150Z 00007KT 03/02 A3014 RMK A01 T00260016  RH  095%=      5-min Rain = 0
KAOS 221155Z 36007KT 03/02 A3014 RMK A01 T00260016  RH  094%=      5-min Rain = 0
KAOS 221200Z 00006KT 03/01 A3015 RMK A01 T00260014  RH  093%=      5-min Rain = 0
KAOS 221205Z 36004KT 03/02 A3015 RMK A01 T00260015  RH  094%=      5-min Rain = 0
KAOS 221210Z 35004KT 03/02 A3015 RMK A01 T00260015  RH  094%=      5-min Rain = 0
KAOS 221215Z 00005KT 03/02 A3015 RMK A01 T00270016  RH  094%=      5-min Rain = 0
KAOS 221220Z 01005KT 03/02 A3015 RMK A01 T00270016  RH  094%=      5-min Rain = 0
KAOS 221225Z 02006KT 03/02 A3015 RMK A01 T00260015  RH  094%=      5-min Rain = 0
KAOS 221230Z 01006KT 03/02 A3015 RMK A01 T00260016  RH  094%=      5-min Rain = 0
KAOS 221235Z 01007KT 03/02 A3015 RMK A01 T00250015  RH  094%=      5-min Rain = 0
KAOS 221240Z 01007KT 03/02 A3015 RMK A01 T00250015  RH  095%=      5-min Rain = 0
KAOS 221245Z 02005KT 03/02 A3015 RMK A01 T00250016  RH  095%=      5-min Rain = 0
KAOS 221250Z 01005KT 03/02 A3015 RMK A01 T00250016  RH  095%=      5-min Rain = 0
KAOS 221255Z 01005KT 03/02 A3015 RMK A01 T00250016  RH  095%=      5-min Rain = 0
KAOS 221300Z 00005KT 03/02 A3015 RMK A01 T00250016  RH  095%=      5-min Rain = 0
KAOS 221305Z 00005KT 03/02 A3015 RMK A01 T00250016  RH  096%=      5-min Rain = 0
KAOS 221310Z 01004KT 03/02 A3015 RMK A01 T00250017  RH  096%=      5-min Rain = 0
KAOS 221315Z 00005KT 03/02 A3015 RMK A01 T00250017  RH  096%=      5-min Rain = 0
KAOS 221320Z 00006KT 03/02 A3015 RMK A01 T00250017  RH  096%=      5-min Rain = 0
KAOS 221325Z 36006KT 02/02 A3015 RMK A01 T00240017  RH  096%=      5-min Rain = 0
KAOS 221330Z 36006KT 02/02 A3015 RMK A01 T00240017  RH  096%=      5-min Rain = 0
KAOS 221335Z 35006KT 02/02 A3015 RMK A01 T00240017  RH  097%=      5-min Rain = 0
KAOS 221340Z 35005KT 02/02 A3016 RMK A01 T00240018  RH  097%=      5-min Rain = 0
KAOS 221345Z 34006KT 02/02 A3016 RMK A01 T00240017  RH  097%=      5-min Rain = 0
KAOS 221350Z 34006KT 02/02 A3016 RMK A01 T00240016  RH  096%=      5-min Rain = 0
KAOS 221355Z 34006KT 02/02 A3016 RMK A01 T00240017  RH  096%=      5-min Rain = 0
KAOS 221400Z 34005KT 02/02 A3016 RMK A01 T00240016  RH  096%=      5-min Rain = 0
KAOS 221405Z 34005KT 02/02 A3016 RMK A01 T00240016  RH  096%=      5-min Rain = 0
KAOS 221410Z 34005KT 03/02 A3016 RMK A01 T00250016  RH  096%=      5-min Rain = 0
KAOS 221415Z 32004KT 03/02 A3017 RMK A01 T00250016  RH  096%=      5-min Rain = 0
KAOS 221420Z 33005KT 03/02 A3017 RMK A01 T00250016  RH  095%=      5-min Rain = 0
KAOS 221425Z 32004KT 03/02 A3017 RMK A01 T00250016  RH  095%=      5-min Rain = 0
KAOS 221430Z 32004KT 03/02 A3017 RMK A01 T00250015  RH  094%=      5-min Rain = 0
KAOS 221435Z 33004KT 03/02 A3017 RMK A01 T00250015  RH  094%=      5-min Rain = 0
KAOS 221440Z 32004KT 03/02 A3017 RMK A01 T00270016  RH  094%=      5-min Rain = 0
KAOS 221445Z 33003KT 03/02 A3017 RMK A01 T00260015  RH  093%=      5-min Rain = 0
KAOS 221450Z 33003KT 03/01 A3017 RMK A01 T00270014  RH  093%=      5-min Rain = 0
KAOS 221455Z 33003KT 03/01 A3017 RMK A01 T00270014  RH  092%=      5-min Rain = 0
KAOS 221500Z 34004KT 03/02 A3017 RMK A01 T00280015  RH  092%=      5-min Rain = 0
KAOS 221505Z 33004KT 03/02 A3017 RMK A01 T00280015  RH  092%=      5-min Rain = 0
KAOS 221510Z 34003KT 03/01 A3017 RMK A01 T00290014  RH  091%=      5-min Rain = 0
KAOS 221515Z 34003KT 03/01 A3017 RMK A01 T00290012  RH  090%=      5-min Rain = 0
KAOS 221520Z 32003KT 03/01 A3017 RMK A01 T00290011  RH  090%=      5-min Rain = 0
KAOS 221525Z 33003KT 03/01 A3017 RMK A01 T00290012  RH  090%=      5-min Rain = 0
KAOS 221530Z 32003KT 03/01 A3017 RMK A01 T00300011  RH  089%=      5-min Rain = 0
KAOS 221535Z 31006KT 03/01 A3017 RMK A01 T00320014  RH  089%=      5-min Rain = 0
KAOS 221540Z 30005KT 03/01 A3017 RMK A01 T00330010  RH  086%=      5-min Rain = 0
KAOS 221545Z 28005KT 03/01 A3018 RMK A01 T00330011  RH  087%=      5-min Rain = 0
KAOS 221550Z 29004KT 03/01 A3018 RMK A01 T00330011  RH  087%=      5-min Rain = 0
KAOS 221555Z 29005KT 03/01 A3018 RMK A01 T00340011  RH  086%=      5-min Rain = 0
KAOS 221600Z 29006KT 04/01 A3018 RMK A01 T00360013  RH  086%=      5-min Rain = 0
KAOS 221605Z 28005KT 04/01 A3018 RMK A01 T00360011  RH  085%=      5-min Rain = 0
KAOS 221610Z 29004KT 04/01 A3018 RMK A01 T00360011  RH  085%=      5-min Rain = 0
KAOS 221615Z 29005KT 04/01 A3017 RMK A01 T00370011  RH  085%=      5-min Rain = 0
KAOS 221620Z 28004KT 04/01 A3017 RMK A01 T00370011  RH  084%=      5-min Rain = 0
KAOS 221625Z 29005KT 04/01 A3017 RMK A01 T00370011  RH  084%=      5-min Rain = 0
KAOS 221630Z 28004KT 04/01 A3017 RMK A01 T00370011  RH  084%=      5-min Rain = 0
KAOS 221635Z 27003KT 04/01 A3017 RMK A01 T00370010  RH  084%=      5-min Rain = 0
KAOS 221640Z 28004KT 04/01 A3017 RMK A01 T00400013  RH  084%=      5-min Rain = 0
KAOS 221645Z 28004KT 04/01 A3017 RMK A01 T00400011  RH  083%=      5-min Rain = 0
KAOS 221650Z 29003KT 04/01 A3017 RMK A01 T00400009  RH  082%=      5-min Rain = 0
KAOS 221655Z 28003KT 04/01 A3017 RMK A01 T00400010  RH  082%=      5-min Rain = 0
KAOS 221700Z 25003KT 04/01 A3017 RMK A01 T00420013  RH  083%=      5-min Rain = 0
KAOS 221705Z 27002KT 04/01 A3017 RMK A01 T00420011  RH  081%=      5-min Rain = 0
KAOS 221710Z 26003KT 04/01 A3017 RMK A01 T00430012  RH  082%=      5-min Rain = 0
KAOS 221715Z 23006KT 05/02 A3016 RMK A01 T00450017  RH  083%=      5-min Rain = 0
KAOS 221720Z 23006KT 05/02 A3016 RMK A01 T00450015  RH  082%=      5-min Rain = 0
KAOS 221725Z 25006KT 05/02 A3016 RMK A01 T00460015  RH  082%=      5-min Rain = 0
KAOS 221730Z 23006KT 05/02 A3016 RMK A01 T00450015  RH  082%=      5-min Rain = 0
KAOS 221735Z 23006KT 05/02 A3015 RMK A01 T00460016  RH  082%=      5-min Rain = 0
KAOS 221740Z 25007KT 05/02 A3015 RMK A01 T00480018  RH  082%=      5-min Rain = 0
KAOS 221745Z 23006KT 05/02 A3015 RMK A01 T00480018  RH  082%=      5-min Rain = 0
KAOS 221750Z 24005KT 05/02 A3015 RMK A01 T00470016  RH  081%=      5-min Rain = 0
KAOS 221755Z 24005KT 05/02 A3015 RMK A01 T00490019  RH  082%=      5-min Rain = 0
KAOS 221800Z 24005KT 05/02 A3015 RMK A01 T00510022  RH  083%=      5-min Rain = 0
KAOS 221805Z 24006KT 05/02 A3014 RMK A01 T00510020  RH  082%=      5-min Rain = 0
KAOS 221810Z 25007KT 05/02 A3014 RMK A01 T00520021  RH  082%=      5-min Rain = 0
KAOS 221815Z 25007KT 05/02 A3014 RMK A01 T00520020  RH  082%=      5-min Rain = 0
KAOS 221820Z 25006KT 05/02 A3013 RMK A01 T00520020  RH  081%=      5-min Rain = 0
KAOS 221825Z 23005KT 05/02 A3013 RMK A01 T00520020  RH  081%=      5-min Rain = 0
KAOS 221830Z 23007KT 06/02 A3012 RMK A01 T00550024  RH  082%=      5-min Rain = 0
KAOS 221835Z 24008KT 06/02 A3012 RMK A01 T00560023  RH  081%=      5-min Rain = 0
KAOS 221840Z 24007KT 06/03 A3011 RMK A01 T00580025  RH  081%=      5-min Rain = 0
KAOS 221845Z 25007KT 06/02 A3011 RMK A01 T00570023  RH  080%=      5-min Rain = 0
KAOS 221850Z 26006KT 06/02 A3011 RMK A01 T00590023  RH  079%=      5-min Rain = 0
KAOS 221855Z 24007KT 06/03 A3011 RMK A01 T00600025  RH  080%=      5-min Rain = 0
KAOS 221900Z 24008KT 06/03 A301 RMK A01 T00610025  RH  079%=      5-min Rain = 0
KAOS 221905Z 24008KT 06/03 A301 RMK A01 T00630028  RH  080%=      5-min Rain = 0
KAOS 221910Z 23008KT 06/03 A3009 RMK A01 T00630029  RH  080%=      5-min Rain = 0
KAOS 221915Z 25006KT 06/03 A3009 RMK A01 T00630027  RH  079%=      5-min Rain = 0
KAOS 221920Z 24007KT 06/03 A3009 RMK A01 T00640028  RH  079%=      5-min Rain = 0
KAOS 221925Z 25007KT 07/03 A3008 RMK A01 T00650028  RH  078%=      5-min Rain = 0
KAOS 221930Z 25007KT 07/03 A3008 RMK A01 T00660027  RH  077%=      5-min Rain = 0
KAOS 221935Z 24007KT 07/03 A3008 RMK A01 T00670029  RH  078%=      5-min Rain = 0
KAOS 221940Z 25006KT 07/03 A3008 RMK A01 T00700030  RH  077%=      5-min Rain = 0
KAOS 221945Z 23006KT 07/03 A3007 RMK A01 T00690028  RH  076%=      5-min Rain = 0
KAOS 221950Z 25006KT 07/03 A3007 RMK A01 T00720031  RH  076%=      5-min Rain = 0
KAOS 221955Z 26006KT 07/03 A3007 RMK A01 T00740031  RH  075%=      5-min Rain = 0
KAOS 222000Z 25006KT 08/03 A3007 RMK A01 T00750030  RH  075%=      5-min Rain = 0
KAOS 222005Z 24006KT 08/04 A3006 RMK A01 T00810036  RH  074%=      5-min Rain = 0
KAOS 222010Z 24004KT 08/03 A3006 RMK A01 T00820032  RH  072%=      5-min Rain = 0
KAOS 222015Z 28006KT 08/03 A3006 RMK A01 T00800030  RH  072%=      5-min Rain = 0
KAOS 222020Z 27005KT 08/03 A3006 RMK A01 T00800033  RH  073%=      5-min Rain = 0
KAOS 222025Z 25006KT 08/03 A3006 RMK A01 T00790029  RH  072%=      5-min Rain = 0
KAOS 222030Z 26006KT 08/03 A3005 RMK A01 T00800031  RH  072%=      5-min Rain = 0
KAOS 222035Z 25005KT 08/03 A3005 RMK A01 T00810030  RH  072%=      5-min Rain = 0
KAOS 222040Z 25007KT 08/03 A3005 RMK A01 T00820032  RH  072%=      5-min Rain = 0
KAOS 222045Z 25007KT 09/03 A3005 RMK A01 T00880034  RH  070%=      5-min Rain = 0
KAOS 222050Z 25006KT 09/04 A3005 RMK A01 T00920035  RH  069%=      5-min Rain = 0
KAOS 222055Z 24008KT 09/03 A3005 RMK A01 T00930034  RH  068%=      5-min Rain = 0
KAOS 222100Z 24007KT 09/03 A3005 RMK A01 T00890033  RH  069%=      5-min Rain = 0
KAOS 222105Z 25007KT 09/04 A3005 RMK A01 T00920035  RH  069%=      5-min Rain = 0
KAOS 222110Z 23007KT 10/04 A3004 RMK A01 T00950035  RH  067%=      5-min Rain = 0
KAOS 222115Z 23006G11KT 10/03 A3004 RMK A01 T00960033  RH  066%=      5-min Rain = 0
KAOS 222120Z 21006KT 10/04 A3004 RMK A01 T01000036  RH  066%=      5-min Rain = 0
KAOS 222125Z 21005KT 10/03 A3004 RMK A01 T00990034  RH  065%=      5-min Rain = 0
KAOS 222130Z 20005KT 10/04 A3003 RMK A01 T00990035  RH  066%=      5-min Rain = 0
KAOS 222135Z 22003KT 10/04 A3003 RMK A01 T01020036  RH  065%=      5-min Rain = 0
KAOS 222140Z 20006KT 11/04 A3003 RMK A01 T01060037  RH  064%=      5-min Rain = 0
KAOS 222145Z 19005KT 10/04 A3003 RMK A01 T01040037  RH  064%=      5-min Rain = 0
KAOS 222150Z 17007KT 10/04 A3003 RMK A01 T01040038  RH  065%=      5-min Rain = 0
KAOS 222155Z 18006KT 10/04 A3002 RMK A01 T01040038  RH  065%=      5-min Rain = 0
KAOS 222200Z 17008KT 10/04 A3002 RMK A01 T01030039  RH  066%=      5-min Rain = 0
KAOS 222205Z 17007KT 10/04 A3002 RMK A01 T01020038  RH  066%=      5-min Rain = 0
KAOS 222210Z 16007KT 11/04 A3002 RMK A01 T01050041  RH  066%=      5-min Rain = 0
KAOS 222215Z 17007KT 11/04 A3002 RMK A01 T01050041  RH  066%=      5-min Rain = 0
KAOS 222220Z 18006KT 11/04 A3002 RMK A01 T01050041  RH  065%=      5-min Rain = 0
KAOS 222225Z 16006KT 11/04 A3002 RMK A01 T01060041  RH  065%=      5-min Rain = 0
KAOS 222230Z 16005KT 11/04 A3002 RMK A01 T01050040  RH  065%=      5-min Rain = 0
KAOS 222235Z 16005KT 10/04 A3002 RMK A01 T01030040  RH  066%=      5-min Rain = 0
KAOS 222240Z 15007KT 11/04 A3002 RMK A01 T01050042  RH  066%=      5-min Rain = 0
KAOS 222245Z 14006KT 11/04 A3002 RMK A01 T01050042  RH  066%=      5-min Rain = 0
KAOS 222250Z 15006KT 11/04 A3002 RMK A01 T01050042  RH  066%=      5-min Rain = 0
KAOS 222255Z 15006KT 11/04 A3001 RMK A01 T01050042  RH  066%=      5-min Rain = 0
KAOS 222300Z 13006KT 10/04 A3001 RMK A01 T01030041  RH  067%=      5-min Rain = 0
KAOS 222305Z 13005KT 10/04 A3001 RMK A01 T01020042  RH  067%=      5-min Rain = 0
KAOS 222310Z 13005KT 10/04 A3001 RMK A01 T01020042  RH  068%=      5-min Rain = 0
KAOS 222315Z 13005KT 10/04 A3001 RMK A01 T01020044  RH  069%=      5-min Rain = 0
KAOS 222320Z 12006KT 10/04 A3001 RMK A01 T01000044  RH  069%=      5-min Rain = 0
KAOS 222325Z 12005KT 10/04 A3001 RMK A01 T00990044  RH  070%=      5-min Rain = 0
KAOS 222330Z 11005KT 10/05 A3001 RMK A01 T00980045  RH  071%=      5-min Rain = 0
KAOS 222335Z 11006KT 10/05 A3001 RMK A01 T00960046  RH  072%=      5-min Rain = 0
KAOS 222340Z 10006KT 09/05 A3001 RMK A01 T00940046  RH  073%=      5-min Rain = 0
KAOS 222345Z 10007KT 09/05 A3001 RMK A01 T00910046  RH  075%=      5-min Rain = 0
KAOS 222350Z 10007KT 09/05 A3001 RMK A01 T00870047  RH  077%=      5-min Rain = 0
KAOS 222355Z 11007KT 08/05 A3001 RMK A01 T00840046  RH  078%=      5-min Rain = 0
KAOS 230000Z 11008KT 08/04 A3001 RMK A01 T00820044  RH  078%=      5-min Rain = 0
KAOS 230005Z 11008KT 08/04 A3001 RMK A01 T00800043  RH  079%=      5-min Rain = 0
KAOS 230010Z 12009KT 08/04 A3001 RMK A01 T00780041  RH  079%=      5-min Rain = 0
KAOS 230015Z 11008KT 08/04 A3001 RMK A01 T00760040  RH  080%=      5-min Rain = 0
KAOS 230020Z 11008KT 07/04 A3001 RMK A01 T00740040  RH  081%=      5-min Rain = 0
KAOS 230025Z 11007KT 07/04 A3001 RMK A01 T00710040  RH  082%=      5-min Rain = 0
KAOS 230030Z 12007KT 07/04 A3001 RMK A01 T00690039  RH  083%=      5-min Rain = 0
KAOS 230035Z 12006KT 07/04 A3001 RMK A01 T00670039  RH  084%=      5-min Rain = 0
KAOS 230040Z 13005KT 06/04 A3001 RMK A01 T00640038  RH  085%=      5-min Rain = 0
KAOS 230045Z 13005KT 06/04 A3001 RMK A01 T00640040  RH  086%=      5-min Rain = 0
KAOS 230050Z 13004KT 06/04 A3001 RMK A01 T00640040  RH  087%=      5-min Rain = 0
KAOS 230055Z 11004KT 06/04 A3001 RMK A01 T00630040  RH  087%=      5-min Rain = 0
KAOS 230100Z 09003KT 06/04 A3002 RMK A01 T00600038  RH  087%=      5-min Rain = 0
KAOS 230105Z 09004KT 06/04 A3002 RMK A01 T00580037  RH  088%=      5-min Rain = 0
KAOS 230110Z 11006KT 06/04 A3002 RMK A01 T00580037  RH  088%=      5-min Rain = 0
KAOS 230115Z 13007KT 06/04 A3002 RMK A01 T00590038  RH  088%=      5-min Rain = 0
KAOS 230120Z 13010KT 06/04 A3002 RMK A01 T00610038  RH  087%=      5-min Rain = 0
KAOS 230125Z 13009KT 06/04 A3002 RMK A01 T00600038  RH  087%=      5-min Rain = 0
KAOS 230130Z 14008KT 06/04 A3002 RMK A01 T00590037  RH  088%=      5-min Rain = 0
KAOS 230135Z 15006KT 06/04 A3002 RMK A01 T00570037  RH  088%=      5-min Rain = 0
KAOS 230140Z 15006KT 06/04 A3002 RMK A01 T00550036  RH  089%=      5-min Rain = 0
KAOS 230145Z 15005KT 05/03 A3002 RMK A01 T00530034  RH  089%=      5-min Rain = 0
KAOS 230150Z 16006KT 05/03 A3002 RMK A01 T00520034  RH  090%=      5-min Rain = 0
KAOS 230155Z 16006KT 05/03 A3003 RMK A01 T00520034  RH  090%=      5-min Rain = 0
KAOS 230200Z 16005KT 05/03 A3003 RMK A01 T00510034  RH  090%=      5-min Rain = 0
KAOS 230205Z 17002KT 05/03 A3003 RMK A01 T00500033  RH  090%=      5-min Rain = 0
KAOS 230210Z 14002KT 05/03 A3003 RMK A01 T00480032  RH  091%=      5-min Rain = 0
KAOS 230215Z 12004KT 05/03 A3003 RMK A01 T00480033  RH  091%=      5-min Rain = 0
KAOS 230220Z 11004KT 05/03 A3004 RMK A01 T00490033  RH  091%=      5-min Rain = 0
KAOS 230225Z 12006KT 05/03 A3004 RMK A01 T00490033  RH  091%=      5-min Rain = 0
KAOS 230230Z 12007KT 05/03 A3004 RMK A01 T00490032  RH  091%=      5-min Rain = 0
KAOS 230235Z 13008KT 05/03 A3004 RMK A01 T00460031  RH  091%=      5-min Rain = 0
KAOS 230240Z 13008KT 05/03 A3004 RMK A01 T00450030  RH  092%=      5-min Rain = 0
KAOS 230245Z 14007KT 04/03 A3004 RMK A01 T00440030  RH  092%=      5-min Rain = 0
KAOS 230250Z 14006KT 04/03 A3004 RMK A01 T00440030  RH  092%=      5-min Rain = 0
KAOS 230255Z 16004KT 04/03 A3004 RMK A01 T00440030  RH  093%=      5-min Rain = 0
KAOS 230300Z 15005KT 04/03 A3004 RMK A01 T00430030  RH  092%=      5-min Rain = 0
KAOS 230305Z 14003KT 04/03 A3004 RMK A01 T00440030  RH  093%=      5-min Rain = 0
KAOS 230310Z 15006KT 04/03 A3004 RMK A01 T00430030  RH  092%=      5-min Rain = 0
KAOS 230315Z 11005KT 04/03 A3005 RMK A01 T00420029  RH  092%=      5-min Rain = 0
KAOS 230320Z 06006KT 04/03 A3006 RMK A01 T00410028  RH  093%=      5-min Rain = 0
KAOS 230325Z 10007KT 04/03 A3006 RMK A01 T00390027  RH  093%=      5-min Rain = 0
KAOS 230330Z 14010KT 04/03 A3005 RMK A01 T00410029  RH  093%=      5-min Rain = 0
KAOS 230335Z 15009KT 04/03 A3005 RMK A01 T00420028  RH  092%=      5-min Rain = 0
KAOS 230340Z 16009KT 04/03 A3005 RMK A01 T00420028  RH  092%=      5-min Rain = 0
KAOS 230345Z 16009KT 04/03 A3005 RMK A01 T00410027  RH  092%=      5-min Rain = 0
KAOS 230350Z 16008KT 04/03 A3005 RMK A01 T00400027  RH  093%=      5-min Rain = 0
KAOS 230355Z 15008KT 04/03 A3005 RMK A01 T00390026  RH  093%=      5-min Rain = 0
KAOS 230400Z 15007KT 04/03 A3005 RMK A01 T00370025  RH  093%=      5-min Rain = 0
KAOS 230405Z 12005KT 04/02 A3005 RMK A01 T00360024  RH  094%=      5-min Rain = 0
KAOS 230410Z 07005KT 03/02 A3006 RMK A01 T00330023  RH  094%=      5-min Rain = 0
KAOS 230415Z 09006KT 03/02 A3006 RMK A01 T00320023  RH  095%=      5-min Rain = 0
KAOS 230420Z 12006KT 03/02 A3006 RMK A01 T00320024  RH  096%=      5-min Rain = 0
KAOS 230425Z 15008KT 03/02 A3005 RMK A01 T00320023  RH  096%=      5-min Rain = 0
KAOS 230430Z 16003KT 03/02 A3006 RMK A01 T00320023  RH  096%=      5-min Rain = 0
KAOS 230435Z 17007KT 03/02 A3006 RMK A01 T00320024  RH  096%=      5-min Rain = 0
KAOS 230440Z 17006KT 03/03 A3006 RMK A01 T00340025  RH  096%=      5-min Rain = 0
KAOS 230445Z 17005KT 03/03 A3005 RMK A01 T00340025  RH  095%=      5-min Rain = 0
KAOS 230450Z 16007KT 03/02 A3005 RMK A01 T00340024  RH  095%=      5-min Rain = 0
KAOS 230455Z 16007KT 03/02 A3005 RMK A01 T00320023  RH  095%=      5-min Rain = 0
KAOS 230500Z 16006KT 03/02 A3005 RMK A01 T00300022  RH  095%=      5-min Rain = 0
KAOS 230505Z 16005KT 03/02 A3005 RMK A01 T00290021  RH  096%=      5-min Rain = 0
KAOS 230510Z 16006KT 03/02 A3006 RMK A01 T00280020  RH  096%=      5-min Rain = 0
KAOS 230515Z 16005KT 03/02 A3006 RMK A01 T00270020  RH  096%=      5-min Rain = 0
KAOS 230520Z 16006KT 03/02 A3006 RMK A01 T00270019  RH  097%=      5-min Rain = 0
KAOS 230525Z 16006KT 03/02 A3006 RMK A01 T00260019  RH  097%=      5-min Rain = 0
KAOS 230530Z 18004KT 03/02 A3006 RMK A01 T00260019  RH  097%=      5-min Rain = 0
KAOS 230535Z 17005KT 03/02 A3006 RMK A01 T00260019  RH  097%=      5-min Rain = 0
KAOS 230540Z 17005KT 03/02 A3005 RMK A01 T00250018  RH  097%=      5-min Rain = 0
KAOS 230545Z 17004KT 02/02 A3005 RMK A01 T00240016  RH  097%=      5-min Rain = 0
KAOS 230550Z 16004KT 02/02 A3005 RMK A01 T00230016  RH  097%=      5-min Rain = 0
KAOS 230555Z 16004KT 02/02 A3005 RMK A01 T00220015  RH  097%=      5-min Rain = 0

Page generated in 0.009 seconds.